createdAt,value
2019-03-01T00:00:20.954Z,21.30
2019-03-01T00:01:20.946Z,20.00
2019-03-01T00:02:21.450Z,22.90
2019-03-01T00:03:20.914Z,20.50
2019-03-01T00:04:20.904Z,20.70
2019-03-01T00:05:20.892Z,17.70
2019-03-01T00:06:20.889Z,19.90
2019-03-01T00:07:20.873Z,20.60
2019-03-01T00:08:20.880Z,19.30
2019-03-01T00:09:20.854Z,18.60
2019-03-01T00:10:20.840Z,20.90
2019-03-01T00:11:20.835Z,21.70
2019-03-01T00:12:20.827Z,19.60
2019-03-01T00:13:20.812Z,20.40
2019-03-01T00:14:20.794Z,17.70
2019-03-01T00:15:20.787Z,21.10
2019-03-01T00:16:20.773Z,19.30
2019-03-01T00:17:20.769Z,18.80
2019-03-01T00:18:20.751Z,21.10
2019-03-01T00:19:20.739Z,20.50
2019-03-01T00:20:20.728Z,18.80
2019-03-01T00:21:20.931Z,19.10
2019-03-01T00:22:20.706Z,22.40
2019-03-01T00:23:20.702Z,19.70
2019-03-01T00:24:20.691Z,20.10
2019-03-01T00:25:20.674Z,21.80
2019-03-01T00:26:20.664Z,19.90
2019-03-01T00:27:20.660Z,21.80
2019-03-01T00:28:20.774Z,21.20
2019-03-01T00:29:20.635Z,20.00
2019-03-01T00:30:20.621Z,21.50
2019-03-01T00:31:20.609Z,18.30
2019-03-01T00:32:20.596Z,21.10
2019-03-01T00:33:20.589Z,21.50
2019-03-01T00:34:20.576Z,22.30
2019-03-01T00:35:20.580Z,22.50
2019-03-01T00:36:20.559Z,19.90
2019-03-01T00:37:20.547Z,25.30
2019-03-01T00:38:20.557Z,20.00
2019-03-01T00:39:20.521Z,19.50
2019-03-01T00:40:20.514Z,22.70
2019-03-01T00:41:20.500Z,20.30
2019-03-01T00:42:20.503Z,22.00
2019-03-01T00:43:20.776Z,21.50
2019-03-01T00:44:20.467Z,19.00
2019-03-01T00:45:20.459Z,24.80
2019-03-01T00:46:20.444Z,21.00
2019-03-01T00:47:20.445Z,22.90
2019-03-01T00:48:20.426Z,21.20
2019-03-01T00:49:20.421Z,21.40
2019-03-01T00:50:20.406Z,20.30
2019-03-01T00:51:20.406Z,23.60
2019-03-01T00:52:20.386Z,19.70
2019-03-01T00:53:20.385Z,20.40
2019-03-01T00:54:20.357Z,23.90
2019-03-01T00:55:20.356Z,24.00
2019-03-01T00:56:20.342Z,21.10
2019-03-01T00:57:20.331Z,20.00
2019-03-01T00:58:20.324Z,20.30
2019-03-01T00:59:20.407Z,21.80
2019-03-01T01:00:20.297Z,22.10
2019-03-01T01:01:20.297Z,19.60
2019-03-01T01:02:20.283Z,21.20
2019-03-01T01:03:20.290Z,20.70
2019-03-01T01:04:20.325Z,20.30
2019-03-01T01:05:20.250Z,20.30
2019-03-01T01:06:20.236Z,21.90
2019-03-01T01:07:20.227Z,19.50
2019-03-01T01:08:20.731Z,20.30
2019-03-01T01:09:20.214Z,20.70
2019-03-01T01:10:20.190Z,19.80
2019-03-01T01:11:20.186Z,22.40
2019-03-01T01:12:20.171Z,18.60
2019-03-01T01:13:20.155Z,20.60
2019-03-01T01:14:20.145Z,19.70
2019-03-01T01:15:20.131Z,19.70
2019-03-01T10:22:29.766Z,80.50
2019-03-01T10:24:19.678Z,50.60
2019-03-01T10:25:19.661Z,50.60
2019-03-01T10:26:19.652Z,58.80
2019-03-01T10:27:19.657Z,54.80
2019-03-01T10:28:19.663Z,51.00
2019-03-01T10:29:19.645Z,56.80
2019-03-01T10:30:19.628Z,52.50
2019-03-01T10:31:19.596Z,48.90
2019-03-01T10:32:19.589Z,47.80
2019-03-01T10:33:19.600Z,45.60
2019-03-01T10:34:19.580Z,52.70
2019-03-01T10:35:19.589Z,54.20
2019-03-01T10:36:19.559Z,51.20
2019-03-01T10:37:19.531Z,47.20
2019-03-01T10:38:19.533Z,48.20
2019-03-01T10:39:19.513Z,44.10
2019-03-01T10:40:19.518Z,48.20
2019-03-01T10:41:19.488Z,51.90
2019-03-01T10:42:19.478Z,54.20
2019-03-01T10:43:19.466Z,42.40
2019-03-01T10:44:19.461Z,45.70
2019-03-01T10:45:19.448Z,45.40
2019-03-01T10:46:19.469Z,41.20
2019-03-01T10:47:19.430Z,41.50
2019-03-01T10:48:19.411Z,43.00
2019-03-01T10:49:19.405Z,40.80
2019-03-01T10:50:19.390Z,40.00
2019-03-01T10:51:19.405Z,41.90
2019-03-01T10:52:19.369Z,40.10
2019-03-01T10:53:19.367Z,42.80
2019-03-01T10:54:19.349Z,40.80
2019-03-01T10:55:19.382Z,45.70
2019-03-01T10:56:19.362Z,38.30
2019-03-01T10:57:19.325Z,36.50
2019-03-01T10:58:19.309Z,42.40
2019-03-01T10:59:19.305Z,36.90
2019-03-01T11:00:19.289Z,37.80
2019-03-01T11:01:19.269Z,37.10
2019-03-01T11:02:19.281Z,37.20
2019-03-01T11:03:19.271Z,32.90
2019-03-01T11:04:19.343Z,33.30
2019-03-01T11:05:19.228Z,36.60
2019-03-01T11:06:19.219Z,37.40
2019-03-01T11:07:19.207Z,34.50
2019-03-01T11:08:19.213Z,41.00
2019-03-01T11:09:19.189Z,41.60
2019-03-01T11:10:19.186Z,31.30
2019-03-01T11:11:19.165Z,34.20
2019-03-01T11:12:19.159Z,31.40
2019-03-01T11:13:19.144Z,39.60
2019-03-01T11:14:19.152Z,30.30
2019-03-01T11:15:19.124Z,33.00
2019-03-01T11:16:19.114Z,27.60
2019-03-01T11:17:19.104Z,31.00
2019-03-01T11:18:19.105Z,28.60
2019-03-01T11:19:19.086Z,33.50
2019-03-01T11:20:19.086Z,33.40
2019-03-01T11:21:19.060Z,32.80
2019-03-01T11:22:19.049Z,32.30
2019-03-01T11:23:19.036Z,30.20
2019-03-01T11:24:19.035Z,30.40
2019-03-01T11:25:19.016Z,29.00
2019-03-01T11:26:19.020Z,30.20
2019-03-01T11:27:18.999Z,33.40
2019-03-01T11:28:18.987Z,28.90
2019-03-01T11:29:18.974Z,30.50
2019-03-01T11:30:18.967Z,38.90
2019-03-01T11:31:18.953Z,33.30
2019-03-01T11:32:18.943Z,31.00
2019-03-01T11:33:18.942Z,32.80
2019-03-01T11:34:18.948Z,31.80
2019-03-01T11:35:18.915Z,34.00
2019-03-01T11:36:18.900Z,28.60
2019-03-01T11:37:18.923Z,35.60
2019-03-01T11:38:18.898Z,30.50
2019-03-01T11:39:18.870Z,29.90
2019-03-01T11:40:18.879Z,34.70
2019-03-01T11:41:18.847Z,27.50
2019-03-01T11:42:18.841Z,30.90
2019-03-01T11:43:18.826Z,30.50
2019-03-01T11:44:18.816Z,29.80
2019-03-01T11:45:18.818Z,30.10
2019-03-01T11:46:18.794Z,34.60
2019-03-01T11:47:18.786Z,30.80
2019-03-01T11:48:18.842Z,38.50
2019-03-01T11:49:18.770Z,36.50
2019-03-01T11:50:18.756Z,28.10
2019-03-01T11:51:18.749Z,32.10
2019-03-01T11:52:18.731Z,32.40
2019-03-01T11:53:18.720Z,34.80
2019-03-01T11:54:18.720Z,35.90
2019-03-01T11:55:18.700Z,35.70
2019-03-01T11:56:18.695Z,34.70
2019-03-01T11:57:18.708Z,33.30
2019-03-01T11:58:18.668Z,36.10
2019-03-01T11:59:18.765Z,32.30
2019-03-01T12:00:18.652Z,30.10
2019-03-01T12:01:18.638Z,33.70
2019-03-01T12:02:18.630Z,33.90
2019-03-01T12:03:18.618Z,34.10
2019-03-01T12:04:18.621Z,30.20
2019-03-01T12:05:18.657Z,36.90
2019-03-01T12:06:18.596Z,29.30
2019-03-01T12:07:18.581Z,31.20
2019-03-01T12:08:18.574Z,35.20
2019-03-01T12:09:18.759Z,35.30
2019-03-01T12:10:18.547Z,27.30
2019-03-01T12:11:18.655Z,29.10
2019-03-01T12:12:18.608Z,34.90
2019-03-01T12:13:18.521Z,30.50
2019-03-01T12:14:18.514Z,31.90
2019-03-01T12:15:18.504Z,37.10
2019-03-01T12:16:18.486Z,28.30
2019-03-01T12:17:18.475Z,33.00
2019-03-01T12:18:18.490Z,30.80
2019-03-01T12:19:18.452Z,34.30
2019-03-01T12:20:18.446Z,26.90
2019-03-01T12:21:18.439Z,31.80
2019-03-01T12:22:18.447Z,27.50
2019-03-01T12:23:18.414Z,29.20
2019-03-01T12:24:18.398Z,33.10
2019-03-01T12:25:18.388Z,29.20
2019-03-01T12:26:18.395Z,28.50
2019-03-01T12:27:18.367Z,30.50
2019-03-01T12:28:18.364Z,30.90
2019-03-01T12:29:18.343Z,26.70
2019-03-01T12:30:18.341Z,33.70
2019-03-01T12:31:18.334Z,27.90
2019-03-01T12:32:18.361Z,33.60
2019-03-01T12:33:18.305Z,31.90
2019-03-01T12:34:18.315Z,30.50
2019-03-01T12:35:18.282Z,27.00
2019-03-01T12:36:18.274Z,28.80
2019-03-01T12:37:18.261Z,31.00
2019-03-01T12:38:18.259Z,28.40
2019-03-01T12:39:18.240Z,29.30
2019-03-01T12:40:18.231Z,28.20
2019-03-01T12:41:18.218Z,30.50
2019-03-01T12:42:18.219Z,30.10
2019-03-01T12:43:18.189Z,27.00
2019-03-01T12:44:18.184Z,23.90
2019-03-01T12:45:18.426Z,29.90
2019-03-01T12:46:18.160Z,26.60
2019-03-01T12:47:18.148Z,29.00
2019-03-01T12:48:18.138Z,24.40
2019-03-01T12:49:18.159Z,28.30
2019-03-01T12:50:18.120Z,32.50
2019-03-01T12:51:18.116Z,31.10
2019-03-01T12:52:18.096Z,39.90
2019-03-01T12:53:18.083Z,58.50
2019-03-01T12:54:18.078Z,43.80
2019-03-01T12:55:18.064Z,45.50
2019-03-01T12:56:18.061Z,43.40
2019-03-01T12:57:18.046Z,41.00
2019-03-01T12:58:19.703Z,37.20
2019-03-01T12:59:18.019Z,48.10
2019-03-01T13:00:18.008Z,50.80
2019-03-01T13:01:18.003Z,56.70
2019-03-01T13:02:18.015Z,54.00
2019-03-01T13:03:17.980Z,57.20
2019-03-01T13:04:18.630Z,50.90
2019-03-01T13:05:17.955Z,65.00
2019-03-01T13:06:17.959Z,57.10
2019-03-01T13:07:17.938Z,67.20
2019-03-01T13:08:17.954Z,59.30
2019-03-01T13:09:17.923Z,61.90
2019-03-01T13:10:18.015Z,59.90
2019-03-01T13:11:17.895Z,53.90
2019-03-01T13:12:17.895Z,64.30
2019-03-01T13:13:17.898Z,58.40
2019-03-01T13:14:17.874Z,65.10
2019-03-01T13:15:17.850Z,59.70
2019-03-01T13:16:17.840Z,56.20
2019-03-01T13:17:17.828Z,59.30
2019-03-01T13:18:17.830Z,59.40
2019-03-01T13:19:17.813Z,64.60
2019-03-01T13:20:17.828Z,63.20
2019-03-01T13:21:17.807Z,57.60
2019-03-01T13:22:17.777Z,65.00
2019-03-01T13:23:17.765Z,53.50
2019-03-01T13:24:17.771Z,51.20
2019-03-01T13:25:17.749Z,60.40
2019-03-01T13:26:17.754Z,49.10
2019-03-01T13:27:18.158Z,52.20
2019-03-01T13:28:17.712Z,54.90
2019-03-01T13:29:19.041Z,57.70
2019-03-01T13:30:17.707Z,51.40
2019-03-01T13:31:17.692Z,55.90
2019-03-01T13:32:19.912Z,57.60
2019-03-01T13:33:18.658Z,49.90
2019-03-01T13:34:18.128Z,53.80
2019-03-01T13:35:17.642Z,48.00
2019-03-01T13:36:17.625Z,54.70
2019-03-01T13:37:20.163Z,59.70
2019-03-01T13:38:17.616Z,53.30
2019-03-01T13:39:17.595Z,55.40
2019-03-01T13:40:17.584Z,51.10
2019-03-01T13:41:17.578Z,50.90
2019-03-01T13:42:17.565Z,50.90
2019-03-01T13:43:17.557Z,49.70
2019-03-01T13:44:17.545Z,48.60
2019-03-01T13:45:17.530Z,46.50
2019-03-01T13:46:17.525Z,50.00
2019-03-01T13:47:17.513Z,49.50
2019-03-01T13:48:19.022Z,47.10
2019-03-01T13:49:17.503Z,46.70
2019-03-01T13:50:17.480Z,45.80
2019-03-01T13:51:17.978Z,45.50
2019-03-01T13:52:17.457Z,44.30
2019-03-01T13:53:17.446Z,47.10
2019-03-01T13:54:17.441Z,41.20
2019-03-01T13:55:18.673Z,45.00
2019-03-01T13:56:17.525Z,40.90
2019-03-01T13:57:17.425Z,44.40
2019-03-01T13:58:17.400Z,41.10
2019-03-01T13:59:17.392Z,41.60
2019-03-01T14:00:17.393Z,37.70
2019-03-01T14:01:17.381Z,39.70
2019-03-01T14:02:17.361Z,39.90
2019-03-01T14:03:17.341Z,40.40
2019-03-01T14:04:17.331Z,39.20
2019-03-01T14:05:17.442Z,40.70
2019-03-01T14:06:17.310Z,38.20
2019-03-01T14:07:17.304Z,34.00
2019-03-01T14:08:17.290Z,40.30
2019-03-01T14:09:17.277Z,35.60
2019-03-01T14:10:17.267Z,40.60
2019-03-01T14:11:20.755Z,36.60
2019-03-01T14:12:18.245Z,35.20
2019-03-01T14:13:17.242Z,37.70
2019-03-01T14:14:17.224Z,32.50
2019-03-01T14:15:17.218Z,38.80
2019-03-01T14:16:20.472Z,36.60
2019-03-01T14:17:17.211Z,38.70
2019-03-01T14:18:17.190Z,39.60
2019-03-01T14:19:17.177Z,33.30
2019-03-01T14:20:20.329Z,39.30
2019-03-01T14:21:17.150Z,32.40
2019-03-01T14:22:17.142Z,40.20
2019-03-01T14:23:17.136Z,35.00
2019-03-01T14:24:17.130Z,34.80
2019-03-01T14:25:17.186Z,34.50
2019-03-01T14:26:18.510Z,32.60
2019-03-01T14:27:17.084Z,36.50
2019-03-01T14:28:17.094Z,34.60
2019-03-01T14:29:17.088Z,32.70
2019-03-01T14:30:17.070Z,30.00
2019-03-01T14:31:17.052Z,32.20
2019-03-01T14:32:20.873Z,31.50
2019-03-01T14:33:17.195Z,30.20
2019-03-01T14:34:17.010Z,33.00
2019-03-01T14:35:20.448Z,28.60
2019-03-01T14:36:17.988Z,33.10
2019-03-01T14:37:18.583Z,27.90
2019-03-01T14:38:16.984Z,31.80
2019-03-01T14:39:16.964Z,32.20
2019-03-01T14:40:19.013Z,29.20
2019-03-01T14:41:17.940Z,32.30
2019-03-01T14:42:16.933Z,29.70
2019-03-01T14:43:16.914Z,27.90
2019-03-01T14:44:16.912Z,33.50
2019-03-01T14:45:16.893Z,24.00
2019-03-01T14:46:17.661Z,28.00
2019-03-01T14:47:16.872Z,27.40
2019-03-01T14:48:16.862Z,25.90
2019-03-01T14:49:18.530Z,29.50
2019-03-01T14:50:16.840Z,28.30
2019-03-01T14:51:16.828Z,26.90
2019-03-01T14:52:18.242Z,29.10
2019-03-01T14:53:16.812Z,25.30
2019-03-01T14:54:16.798Z,29.40
2019-03-01T14:55:19.798Z,24.80
2019-03-01T14:56:17.892Z,26.20
2019-03-01T14:57:17.392Z,24.80
2019-03-01T14:58:19.047Z,25.90
2019-03-01T14:59:17.742Z,25.30
2019-03-01T15:00:16.734Z,29.30
2019-03-01T15:01:16.723Z,23.70
2019-03-01T15:02:16.709Z,26.30
2019-03-01T15:03:17.573Z,22.90
2019-03-01T15:04:16.688Z,23.30
2019-03-01T15:05:19.564Z,23.70
2019-03-01T15:06:19.236Z,21.80
2019-03-01T15:07:16.656Z,21.90
2019-03-01T15:08:16.647Z,22.60
2019-03-01T15:09:16.981Z,24.30
2019-03-01T15:10:16.682Z,22.80
2019-03-01T15:11:16.620Z,22.90
2019-03-01T15:12:21.069Z,23.90
2019-03-01T15:13:16.593Z,19.60
2019-03-01T15:14:16.583Z,21.60
2019-03-01T15:15:16.577Z,25.80
2019-03-01T15:16:16.562Z,24.10
2019-03-01T15:17:18.294Z,22.40
2019-03-01T15:18:16.539Z,21.90
2019-03-01T15:19:16.530Z,22.20
2019-03-01T15:20:17.233Z,27.90
2019-03-01T15:21:17.513Z,21.20
2019-03-01T15:22:16.503Z,24.90
2019-03-01T15:23:16.487Z,23.10
2019-03-01T15:24:16.474Z,19.00
2019-03-01T15:25:16.463Z,19.40
2019-03-01T15:26:16.509Z,19.10
2019-03-01T15:27:16.442Z,19.60
2019-03-01T15:28:17.639Z,20.70
2019-03-01T15:29:16.421Z,21.00
2019-03-01T15:30:16.410Z,21.30
2019-03-01T15:31:16.399Z,18.30
2019-03-01T15:32:16.394Z,19.90
2019-03-01T15:33:16.382Z,19.50
2019-03-01T15:34:16.375Z,17.00
2019-03-01T15:35:16.358Z,17.80
2019-03-01T15:36:17.867Z,18.40
2019-03-01T15:37:16.336Z,17.70
2019-03-01T15:38:16.341Z,17.90
2019-03-01T15:39:16.650Z,16.70
2019-03-01T15:40:16.319Z,20.00
2019-03-01T15:41:16.326Z,21.40
2019-03-01T15:42:17.872Z,19.00
2019-03-01T15:43:16.278Z,15.30
2019-03-01T15:44:16.263Z,18.90
2019-03-01T15:45:16.257Z,17.10
2019-03-01T15:46:17.879Z,18.70
2019-03-01T15:47:16.283Z,18.90
2019-03-01T15:48:16.224Z,16.90
2019-03-01T15:49:16.309Z,17.80
2019-03-01T15:50:16.216Z,17.80
2019-03-01T15:51:16.249Z,16.10
2019-03-01T15:52:18.381Z,14.50
2019-03-01T15:53:16.177Z,16.50
2019-03-01T15:54:16.166Z,15.60
2019-03-01T15:55:16.157Z,18.90
2019-03-01T15:56:16.148Z,18.10
2019-03-01T15:57:18.870Z,16.80
2019-03-01T15:58:16.127Z,15.20
2019-03-01T15:59:16.113Z,15.10
2019-03-01T16:00:16.153Z,16.10
2019-03-01T16:01:16.096Z,14.10
2019-03-01T16:02:16.079Z,18.10
2019-03-01T16:03:16.102Z,14.90
2019-03-01T16:04:16.086Z,14.00
2019-03-01T16:05:16.057Z,15.20
2019-03-01T16:06:20.110Z,14.40
2019-03-01T16:07:17.027Z,14.70
2019-03-01T16:08:16.016Z,14.70
2019-03-01T16:09:16.012Z,16.70
2019-03-01T16:10:15.999Z,14.40
2019-03-01T16:11:15.987Z,12.90
2019-03-01T16:12:16.001Z,13.40
2019-03-01T16:13:15.976Z,13.10
2019-03-01T16:14:15.949Z,13.50
2019-03-01T16:15:15.956Z,13.80
2019-03-01T16:16:15.932Z,15.50
2019-03-01T16:17:15.925Z,13.60
2019-03-01T16:18:15.918Z,13.20
2019-03-01T16:19:15.903Z,13.60
2019-03-01T16:20:15.888Z,15.20
2019-03-01T16:21:15.887Z,12.80
2019-03-01T16:22:18.825Z,12.00
2019-03-01T16:23:15.856Z,11.00
2019-03-01T16:24:15.851Z,17.10
2019-03-01T16:25:17.187Z,12.40
2019-03-01T16:26:15.833Z,14.80
2019-03-01T16:27:15.827Z,13.00
2019-03-01T16:28:15.809Z,11.40
2019-03-01T16:29:15.799Z,13.20
2019-03-01T16:30:17.562Z,13.70
2019-03-01T16:31:15.771Z,14.00
2019-03-01T16:32:15.769Z,11.30
2019-03-01T16:33:15.757Z,13.40
2019-03-01T16:34:17.332Z,11.60
2019-03-01T16:35:16.769Z,12.60
2019-03-01T16:36:15.717Z,11.30
2019-03-01T16:37:15.704Z,12.90
2019-03-01T16:38:15.713Z,10.90
2019-03-01T16:39:16.512Z,13.90
2019-03-01T16:40:15.678Z,11.70
2019-03-01T16:41:15.673Z,13.40
2019-03-01T16:42:18.000Z,11.00
2019-03-01T16:43:15.645Z,11.60
2019-03-01T16:44:15.642Z,11.60
2019-03-01T16:45:17.742Z,12.40
2019-03-01T16:46:16.617Z,10.30
2019-03-01T16:47:15.608Z,10.20
2019-03-01T16:48:16.881Z,14.70
2019-03-01T16:49:15.580Z,9.70
2019-03-01T16:50:15.613Z,12.60
2019-03-01T16:51:18.735Z,11.90
2019-03-01T16:52:15.553Z,12.10
2019-03-01T16:53:15.544Z,10.70
2019-03-01T16:54:16.484Z,10.20
2019-03-01T16:55:15.527Z,10.80
2019-03-01T16:56:15.533Z,12.40
2019-03-01T16:57:15.712Z,11.20
2019-03-01T16:58:15.492Z,9.20
2019-03-01T16:59:15.497Z,12.50
2019-03-01T17:00:18.126Z,13.30
2019-03-01T17:01:15.461Z,12.50
2019-03-01T17:02:15.452Z,11.80
2019-03-01T17:03:17.921Z,12.60
2019-03-01T17:04:15.430Z,17.20
2019-03-01T17:05:15.413Z,13.70
2019-03-01T17:06:15.414Z,18.10
2019-03-01T17:07:15.396Z,11.30
2019-03-01T17:08:15.382Z,16.00
2019-03-01T17:09:16.626Z,20.20
2019-03-01T17:10:15.367Z,13.50
2019-03-01T17:11:15.353Z,14.20
2019-03-01T17:12:16.622Z,15.00
2019-03-01T17:13:15.330Z,11.00
2019-03-01T17:14:15.995Z,13.50
2019-03-01T17:15:15.313Z,14.10
2019-03-01T17:16:15.297Z,17.90
2019-03-01T17:17:15.287Z,13.10
2019-03-01T17:18:15.274Z,15.00
2019-03-01T17:19:15.271Z,14.20
2019-03-01T17:20:15.256Z,17.60
2019-03-01T17:21:15.841Z,20.10
2019-03-01T17:22:15.236Z,19.20
2019-03-01T17:23:15.221Z,14.70
2019-03-01T17:24:15.497Z,15.10
2019-03-01T17:25:15.240Z,14.70
2019-03-01T17:26:15.195Z,22.30
2019-03-01T17:27:15.219Z,14.30
2019-03-01T17:28:16.805Z,19.20
2019-03-01T17:29:16.167Z,21.10
2019-03-01T17:30:15.165Z,11.70
2019-03-01T17:31:15.139Z,14.70
2019-03-01T17:32:15.125Z,17.60
2019-03-01T17:33:15.125Z,14.10
2019-03-01T17:34:15.101Z,13.40
2019-03-01T17:35:15.098Z,17.70
2019-03-01T17:36:16.775Z,16.60
2019-03-01T17:37:15.079Z,16.10
2019-03-01T17:38:15.069Z,20.30
2019-03-01T17:39:16.701Z,18.80
2019-03-01T17:40:15.752Z,22.90
2019-03-01T17:41:15.032Z,29.00
2019-03-01T17:42:17.533Z,17.20
2019-03-01T17:43:16.080Z,20.70
2019-03-01T17:44:15.006Z,20.40
2019-03-01T17:45:17.284Z,20.00
2019-03-01T17:46:15.978Z,20.30
2019-03-01T17:47:16.137Z,17.50
2019-03-01T17:48:14.957Z,19.70
2019-03-01T17:49:14.950Z,20.20
2019-03-01T17:50:14.950Z,15.90
2019-03-01T17:51:14.928Z,22.70
2019-03-01T17:52:14.913Z,16.50
2019-03-01T17:53:14.949Z,18.00
2019-03-01T17:54:14.904Z,16.20
2019-03-01T17:55:14.883Z,18.30
2019-03-01T17:56:14.886Z,15.10
2019-03-01T17:57:14.889Z,15.90
2019-03-01T17:58:14.849Z,12.90
2019-03-01T17:59:14.839Z,12.30
2019-03-01T18:00:14.894Z,15.40
2019-03-01T18:01:14.829Z,18.40
2019-03-01T18:02:15.744Z,18.10
2019-03-01T18:03:14.835Z,12.80
2019-03-01T18:04:14.783Z,11.40
2019-03-01T18:05:14.776Z,12.50
2019-03-01T18:06:16.916Z,15.90
2019-03-01T18:07:14.772Z,12.10
2019-03-01T18:08:14.744Z,12.90
2019-03-01T18:09:16.180Z,14.80
2019-03-01T18:10:14.725Z,13.30
2019-03-01T18:11:14.775Z,18.70
2019-03-01T18:12:17.430Z,14.60
2019-03-01T18:13:15.692Z,12.00
2019-03-01T18:14:14.931Z,14.50
2019-03-01T18:15:14.823Z,12.90
2019-03-01T18:16:14.828Z,20.70
2019-03-01T18:17:17.679Z,13.10
2019-03-01T18:18:14.643Z,13.20
2019-03-01T18:19:14.644Z,11.10
2019-03-01T18:20:14.616Z,14.60
2019-03-01T18:21:14.613Z,15.60
2019-03-01T18:22:14.595Z,12.30
2019-03-01T18:23:14.582Z,12.20
2019-03-01T18:24:15.210Z,14.50
2019-03-01T18:25:14.584Z,17.80
2019-03-01T18:26:14.565Z,12.70
2019-03-01T18:27:17.936Z,13.60
2019-03-01T18:28:14.531Z,14.80
2019-03-01T18:29:14.521Z,12.20
2019-03-01T18:30:16.174Z,12.60
2019-03-01T18:31:14.517Z,13.10
2019-03-01T18:32:14.496Z,10.40
2019-03-01T18:33:16.838Z,10.00
2019-03-01T18:34:15.481Z,14.70
2019-03-01T18:35:14.455Z,10.40
2019-03-01T18:36:14.459Z,8.90
2019-03-01T18:37:19.550Z,11.00
2019-03-01T18:38:15.447Z,10.70
2019-03-01T18:39:14.413Z,11.40
2019-03-01T18:40:16.877Z,11.20
2019-03-01T18:41:14.400Z,15.60
2019-03-01T18:42:14.393Z,19.30
2019-03-01T18:43:14.376Z,33.60
2019-03-01T18:44:14.372Z,26.50
2019-03-01T18:45:14.405Z,26.20
2019-03-01T18:46:14.578Z,20.20
2019-03-01T18:47:14.334Z,18.40
2019-03-01T18:48:14.326Z,23.20
2019-03-01T18:49:16.767Z,20.20
2019-03-01T18:50:15.305Z,17.20
2019-03-01T18:51:14.288Z,18.50
2019-03-01T18:52:14.432Z,16.40
2019-03-01T18:53:14.275Z,20.00
2019-03-01T18:54:14.266Z,22.90
2019-03-01T18:55:17.232Z,17.30
2019-03-01T18:56:14.241Z,19.70
2019-03-01T18:57:14.242Z,17.40
2019-03-01T18:58:14.965Z,18.20
2019-03-01T18:59:14.206Z,20.60
2019-03-01T19:00:14.191Z,19.50
2019-03-01T19:01:14.187Z,16.70
2019-03-01T19:02:14.178Z,19.10
2019-03-01T19:03:14.162Z,17.10
2019-03-01T19:04:16.721Z,19.00
2019-03-01T19:05:15.134Z,12.80
2019-03-01T19:06:16.305Z,19.50
2019-03-01T19:07:14.111Z,16.50
2019-03-01T19:08:14.108Z,15.00
2019-03-01T19:09:16.638Z,13.60
2019-03-01T19:10:14.081Z,15.90
2019-03-01T19:11:14.070Z,11.50
2019-03-01T19:12:14.064Z,11.50
2019-03-01T19:13:14.048Z,15.50
2019-03-01T19:14:14.039Z,16.80
2019-03-01T19:15:15.520Z,13.00
2019-03-01T19:16:14.022Z,13.50
2019-03-01T19:17:14.024Z,13.10
2019-03-01T19:18:17.008Z,15.90
2019-03-01T19:19:13.987Z,12.30
2019-03-01T19:20:13.979Z,12.10
2019-03-01T19:21:17.070Z,11.40
2019-03-01T19:22:13.967Z,9.60
2019-03-01T19:23:13.970Z,14.80
2019-03-01T19:24:13.946Z,14.10
2019-03-01T19:25:13.928Z,13.90
2019-03-01T19:26:13.929Z,13.40
2019-03-01T19:27:15.496Z,13.60
2019-03-01T19:28:13.918Z,10.80
2019-03-01T19:29:13.887Z,10.40
2019-03-01T19:30:14.423Z,13.60
2019-03-01T19:31:13.865Z,15.70
2019-03-01T19:32:13.859Z,11.20
2019-03-01T19:33:13.847Z,13.10
2019-03-01T19:34:16.951Z,11.20
2019-03-01T19:35:13.820Z,7.50
2019-03-01T19:36:13.811Z,9.50
2019-03-01T19:37:14.558Z,10.40
2019-03-01T19:38:13.795Z,9.80
2019-03-01T19:39:13.780Z,11.60
2019-03-01T19:40:13.776Z,10.60
2019-03-01T19:41:13.756Z,12.30
2019-03-01T19:42:13.745Z,8.80
2019-03-01T19:43:13.744Z,9.50
2019-03-01T19:44:13.758Z,14.70
2019-03-01T19:45:13.712Z,9.50
2019-03-01T19:46:15.704Z,10.80
2019-03-01T19:47:13.692Z,10.20
2019-03-01T19:48:13.681Z,14.20
2019-03-01T19:49:13.913Z,8.20
2019-03-01T19:50:13.663Z,10.40
2019-03-01T19:51:13.657Z,7.50
2019-03-01T19:52:13.648Z,7.90
2019-03-01T19:53:13.631Z,11.60
2019-03-01T19:54:13.616Z,8.30
2019-03-01T19:55:13.618Z,11.00
2019-03-01T19:56:13.617Z,11.80
2019-03-01T19:57:13.612Z,7.80
2019-03-01T19:58:13.593Z,8.50
2019-03-01T19:59:13.563Z,11.70
2019-03-01T20:00:13.552Z,8.60
2019-03-01T20:01:14.650Z,10.30
2019-03-01T20:02:13.554Z,7.30
2019-03-01T20:03:13.526Z,8.90
2019-03-01T20:04:13.517Z,7.30
2019-03-01T20:05:15.388Z,9.10
2019-03-01T20:06:13.490Z,9.10
2019-03-01T20:07:16.021Z,8.20
2019-03-01T20:08:14.483Z,9.00
2019-03-01T20:09:13.465Z,8.30
2019-03-01T20:10:14.964Z,7.20
2019-03-01T20:11:13.442Z,10.30
2019-03-01T20:12:13.427Z,9.30
2019-03-01T20:13:16.461Z,8.60
2019-03-01T20:14:13.405Z,7.30
2019-03-01T20:15:13.398Z,9.50
2019-03-01T20:16:13.381Z,10.90
2019-03-01T20:17:13.376Z,8.30
2019-03-01T20:18:13.360Z,8.70
2019-03-01T20:19:13.363Z,7.90
2019-03-01T20:20:13.372Z,7.20
2019-03-01T20:21:13.339Z,5.80
2019-03-01T20:22:15.429Z,8.30
2019-03-01T20:23:14.312Z,9.60
2019-03-01T20:24:13.302Z,7.00
2019-03-01T20:25:15.988Z,6.50
2019-03-01T20:26:14.275Z,9.80
2019-03-01T20:27:13.265Z,7.00
2019-03-01T20:28:15.380Z,7.10
2019-03-01T20:29:13.244Z,10.00
2019-03-01T20:30:13.232Z,8.30
2019-03-01T20:31:13.230Z,8.80
2019-03-01T20:32:15.742Z,9.20
2019-03-01T20:33:13.208Z,7.80
2019-03-01T20:34:13.196Z,5.80
2019-03-01T20:35:13.880Z,6.90
2019-03-01T20:36:13.905Z,7.30
2019-03-01T20:37:15.296Z,6.10
2019-03-01T20:38:13.153Z,7.90
2019-03-01T20:39:15.455Z,8.20
2019-03-01T20:40:13.130Z,6.80
2019-03-01T20:41:14.973Z,6.50
2019-03-01T20:42:13.109Z,6.30
2019-03-01T20:43:13.108Z,6.60
2019-03-01T20:44:14.701Z,8.10
2019-03-01T20:45:14.092Z,6.00
2019-03-01T20:46:13.065Z,7.70
2019-03-01T20:47:15.522Z,9.60
2019-03-01T20:48:14.051Z,6.50
2019-03-01T20:49:13.056Z,6.40
2019-03-01T20:50:15.672Z,7.10
2019-03-01T20:51:13.011Z,7.20
2019-03-01T20:52:13.006Z,7.20
2019-03-01T20:53:13.312Z,7.70
2019-03-01T20:54:12.987Z,4.70
2019-03-01T20:55:12.971Z,5.90
2019-03-01T20:56:13.821Z,5.40
2019-03-01T20:57:12.947Z,4.70
2019-03-01T20:58:12.940Z,5.60
2019-03-01T20:59:15.394Z,7.50
2019-03-01T21:00:12.921Z,4.80
2019-03-01T21:01:14.403Z,7.60
2019-03-01T21:02:15.764Z,5.40
2019-03-01T21:03:12.883Z,6.10
2019-03-01T21:04:12.886Z,6.50
2019-03-01T21:05:12.871Z,6.00
2019-03-01T21:06:12.873Z,7.00
2019-03-01T21:07:15.629Z,6.60
2019-03-01T21:08:12.831Z,5.60
2019-03-01T21:09:12.828Z,6.00
2019-03-01T21:10:16.042Z,4.90
2019-03-01T21:11:12.798Z,5.80
2019-03-01T21:12:12.799Z,6.60
2019-03-01T21:13:13.587Z,6.30
2019-03-01T21:14:12.766Z,6.20
2019-03-01T21:15:12.756Z,5.50
2019-03-01T21:16:12.750Z,4.70
2019-03-01T21:17:12.735Z,8.10
2019-03-01T21:18:12.723Z,6.50
2019-03-01T21:19:12.719Z,5.50
2019-03-01T21:20:15.935Z,6.40
2019-03-01T21:21:13.693Z,7.80
2019-03-01T21:22:12.685Z,5.00
2019-03-01T21:23:15.097Z,6.60
2019-03-01T21:24:12.659Z,6.40
2019-03-01T21:25:12.651Z,6.90
2019-03-01T21:26:15.665Z,6.30
2019-03-01T21:27:12.627Z,5.40
2019-03-01T21:28:12.631Z,5.50
2019-03-01T21:29:13.475Z,7.90
2019-03-01T21:30:12.593Z,5.60
2019-03-01T21:31:12.588Z,4.40
2019-03-01T21:32:14.645Z,4.60
2019-03-01T21:33:12.564Z,6.30
2019-03-01T21:34:12.559Z,5.50
2019-03-01T21:35:13.843Z,4.90
2019-03-01T21:36:12.531Z,7.60
2019-03-01T21:37:12.524Z,5.30
2019-03-01T21:38:13.909Z,4.60
2019-03-01T21:39:12.500Z,4.60
2019-03-01T21:40:12.494Z,4.90
2019-03-01T21:41:12.479Z,20.10
2019-03-01T21:42:12.469Z,10.00
2019-03-01T21:43:12.473Z,12.90
2019-03-01T21:44:13.653Z,12.20
2019-03-01T21:45:12.440Z,11.00
2019-03-01T21:46:12.451Z,8.20
2019-03-01T21:47:13.655Z,8.40
2019-03-01T21:48:12.446Z,9.00
2019-03-01T21:49:12.848Z,8.40
2019-03-01T21:50:12.490Z,8.20
2019-03-01T21:51:14.787Z,10.00
2019-03-01T21:52:13.358Z,9.30
2019-03-01T21:53:12.356Z,9.20
2019-03-01T21:54:12.578Z,8.20
2019-03-01T21:55:12.627Z,8.00
2019-03-01T21:56:12.324Z,7.50
2019-03-01T21:57:12.308Z,6.60
2019-03-01T21:58:12.296Z,6.70
2019-03-01T21:59:13.715Z,7.70
2019-03-01T22:00:12.282Z,6.90
2019-03-01T22:01:12.274Z,6.80
2019-03-01T22:02:13.718Z,6.40
2019-03-01T22:03:12.251Z,6.90